Airfield :
LOGIN :

Register | Disclaimer

   EN    FR    IT 

 










Legend :    VFR   Marginal VFR   IFR   Intensive IFR   Very Intensive IFR
Visi :
Ceiling :
>= 8 km
>= 3000ft
5 to 8 km
1000 to 3000 ft
1500m to 5 km
500 to 1000 ft
800 to 1500m
200 to 500 ft
< 800m
< 200 ft
Symbols :   Thunderstorms  Fog  Heavy snow  Heavy precipitations  Wind > 20 kt
SIGMETs :     Misc.  Thunderstorms  Icing  Turbulence  Mountain Waves  Volcanic Ashes






- Airport Elevation : 1959 ft
- IATA code : HOQ


EDQM - Hof Plauen

CURRENT METAR :
  • 071420Z 02009KT 350V060 CAVOK 18/04 Q1030

EXPIRED METARs :
  • 071350Z 03008KT 340V060 CAVOK 18/03 Q1030
  • 071320Z 06007KT 020V110 CAVOK 18/03 Q1030
  • 071250Z 07007KT 030V150 CAVOK 18/04 Q1030
  • 071220Z 03008KT 360V080 CAVOK 18/05 Q1031
  • 071150Z 01008KT 320V050 CAVOK 17/04 Q1030
  • 071120Z 05008KT 030V110 CAVOK 17/04 Q1031

TAF TAF EDQM
Valid from the 07 at 12:00 until the 07 at 21:00 UTC


071100Z 0712/0721 04007KT 9999 SCT030



MET'MAP, your aeronautical weather chart ! - Copyright ORBIFLY December 2007 - Disclaimer

ORBIFLY MET'MAP TEAM :

Programming & Development : Alexandra Zaïnal
Concept & original design : Baudouin d'Aumeries
Assistance for programming : Marc-Olivier Méhu
Technical & hardware support : Manuel Goepfert

Contact : metmap@orbifly.com




SOURCES & CREDITS :

   NOAA